Time;durP1;ratioP1;P1;durP2;ratioP2;P2;SDS_P1;SDS_P2;PMS_P1;PMS_P2;Temp;Humidity;BMP_temperature;BMP_pressure;BME280_temperature;BME280_humidity;BME280_pressure;Samples;Min_cycle;Max_cycle;Signal;HPM_P1;HPM_P2
2022/05/02 00:01:31;;;;;;;10.90;5.73;;;9.40;99.90;;;;;;4173093;28;20099;-69
2022/05/02 00:03:32;;;;;;;11.53;5.77;;;9.40;99.90;;;;;;4175343;28;20056;-53
2022/05/02 00:05:33;;;;;;;7.23;5.23;;;9.30;99.90;;;;;;4174123;28;20041;-57
2022/05/02 00:07:35;;;;;;;9.13;5.03;;;9.40;99.90;;;;;;4175309;28;20033;-58
2022/05/02 00:09:36;;;;;;;9.37;5.43;;;9.30;99.90;;;;;;4173777;28;20033;-55
2022/05/02 00:11:37;;;;;;;6.40;4.40;;;9.30;99.90;;;;;;4157431;28;20042;-66
2022/05/02 00:13:38;;;;;;;6.97;4.50;;;9.30;99.90;;;;;;4173363;28;20040;-64
2022/05/02 00:15:40;;;;;;;8.83;4.20;;;9.20;99.90;;;;;;4173590;28;20084;-57
2022/05/02 00:17:56;;;;;;;8.50;5.27;;;9.20;99.90;;;;;;4174655;28;20018;-53
2022/05/02 00:19:57;;;;;;;8.60;4.87;;;9.20;99.90;;;;;;4174562;28;20052;-67
2022/05/02 00:21:59;;;;;;;11.70;6.33;;;9.00;99.90;;;;;;4173296;28;20079;-56
2022/05/02 00:24:00;;;;;;;9.43;5.23;;;9.00;99.90;;;;;;4173255;28;20485;-55
2022/05/02 00:26:01;;;;;;;7.87;5.67;;;9.00;99.90;;;;;;4173970;28;20045;-56
2022/05/02 00:28:03;;;;;;;8.73;5.97;;;8.90;99.90;;;;;;4172907;28;20087;-56
2022/05/02 00:30:06;;;;;;;9.37;5.47;;;8.90;99.90;;;;;;4174346;28;20041;-56
2022/05/02 00:32:09;;;;;;;9.07;6.20;;;8.90;99.90;;;;;;4172581;28;20091;-53
2022/05/02 00:34:10;;;;;;;10.57;5.47;;;9.00;99.90;;;;;;4175098;28;20087;-58
2022/05/02 00:36:11;;;;;;;7.97;5.07;;;9.00;99.90;;;;;;4174273;28;20029;-56
2022/05/02 00:38:13;;;;;;;9.50;5.70;;;9.00;99.90;;;;;;4175174;28;20033;-53
2022/05/02 00:40:17;;;;;;;8.63;5.27;;;9.00;99.90;;;;;;4172849;28;20107;-56
2022/05/02 00:42:20;;;;;;;9.60;4.77;;;9.00;99.90;;;;;;4175199;28;20063;-70
2022/05/02 00:44:21;;;;;;;8.77;5.10;;;9.00;99.90;;;;;;4173037;28;20045;-56
2022/05/02 00:46:24;;;;;;;9.20;5.00;;;9.00;99.90;;;;;;4174280;28;20465;-55
2022/05/02 00:48:25;;;;;;;8.87;4.90;;;9.00;99.90;;;;;;4171771;28;20110;-65
2022/05/02 00:50:39;;;;;;;9.53;4.53;;;9.00;99.90;;;;;;4173892;28;20040;-54
2022/05/02 00:52:40;;;;;;;6.87;4.47;;;9.00;99.90;;;;;;4172629;28;20890;-57
2022/05/02 00:54:43;;;;;;;10.23;5.77;;;9.00;99.90;;;;;;4174485;28;20075;-71
2022/05/02 00:56:44;;;;;;;8.03;5.17;;;9.00;99.90;;;;;;4172986;28;20065;-56
2022/05/02 00:58:45;;;;;;;10.17;5.37;;;8.90;99.90;;;;;;4173192;28;20094;-56
2022/05/02 01:00:46;;;;;;;8.83;4.97;;;8.80;99.90;;;;;;4173171;28;20110;-62
2022/05/02 01:02:47;;;;;;;8.60;5.50;;;8.70;99.90;;;;;;4155320;28;20041;-59
2022/05/02 01:04:48;;;;;;;8.50;5.63;;;8.70;99.90;;;;;;4173792;28;20099;-55
2022/05/02 01:09:09;;;;;;;7.53;4.90;;;8.60;99.90;;;;;;4174119;28;20397;-56
2022/05/02 01:11:11;;;;;;;9.33;4.87;;;8.50;99.90;;;;;;4172171;28;20087;-63
2022/05/02 01:13:13;;;;;;;6.50;4.60;;;8.40;99.90;;;;;;4173985;28;20041;-53
2022/05/02 01:15:16;;;;;;;7.47;3.97;;;8.40;99.90;;;;;;4172767;28;20857;-61
2022/05/02 01:17:18;;;;;;;7.97;5.00;;;8.30;99.90;;;;;;4174230;28;20021;-53
2022/05/02 01:19:19;;;;;;;13.23;5.40;;;8.30;99.90;;;;;;4172748;28;20021;-54
2022/05/02 01:21:23;;;;;;;11.77;5.23;;;8.20;99.90;;;;;;4174636;28;20098;-63
2022/05/02 01:23:24;;;;;;;11.23;5.63;;;8.10;99.90;;;;;;4171901;28;20080;-55
2022/05/02 01:25:25;;;;;;;8.13;5.37;;;8.10;99.90;;;;;;4174224;28;20045;-55
2022/05/02 01:27:26;;;;;;;6.97;4.73;;;8.10;99.90;;;;;;4172522;28;20086;-55
2022/05/02 01:29:27;;;;;;;10.47;5.30;;;8.10;99.90;;;;;;4173876;28;20075;-58
2022/05/02 01:31:29;;;;;;;9.47;5.50;;;8.20;99.90;;;;;;4173224;28;20037;-56
2022/05/02 01:33:31;;;;;;;10.97;6.33;;;8.20;99.90;;;;;;4173058;28;20048;-57
2022/05/02 01:35:32;;;;;;;13.53;7.40;;;8.20;99.90;;;;;;4173491;28;20083;-54
2022/05/02 01:37:33;;;;;;;16.63;7.03;;;8.20;99.90;;;;;;4171986;28;20037;-54
2022/05/02 01:39:34;;;;;;;9.63;7.00;;;8.20;99.90;;;;;;4173741;28;20033;-53
2022/05/02 01:41:35;;;;;;;10.53;6.43;;;8.10;99.90;;;;;;4171216;28;20829;-61
2022/05/02 01:43:37;;;;;;;10.17;6.17;;;8.20;99.90;;;;;;4173743;28;20029;-55
2022/05/02 01:45:38;;;;;;;11.97;6.37;;;8.20;99.90;;;;;;4153406;28;20061;-54
2022/05/02 01:47:40;;;;;;;9.97;6.47;;;8.20;99.90;;;;;;4173741;28;20469;-52
2022/05/02 01:49:41;;;;;;;11.00;5.90;;;8.30;99.90;;;;;;4171283;28;20041;-57
2022/05/02 01:51:42;;;;;;;10.93;5.97;;;8.30;99.90;;;;;;4173308;28;20079;-56
2022/05/02 01:53:43;;;;;;;9.17;6.13;;;8.20;99.90;;;;;;4171927;28;20033;-70
2022/05/02 01:55:44;;;;;;;13.73;6.43;;;8.20;99.90;;;;;;4173791;28;20098;-54
2022/05/02 01:57:47;;;;;;;11.10;6.30;;;8.20;99.90;;;;;;4172094;28;20106;-54
2022/05/02 01:59:48;;;;;;;8.37;5.50;;;8.20;99.90;;;;;;4173034;28;20078;-58
2022/05/02 02:01:49;;;;;;;8.10;5.50;;;8.10;99.90;;;;;;4171107;28;20106;-55
2022/05/02 02:03:51;;;;;;;10.13;5.37;;;8.00;99.90;;;;;;4172951;28;20036;-53
2022/05/02 02:05:52;;;;;;;7.40;4.70;;;8.00;99.90;;;;;;4173478;28;20812;-59
2022/05/02 02:07:53;;;;;;;8.37;5.37;;;8.00;99.90;;;;;;4172196;28;20447;-68
2022/05/02 02:09:54;;;;;;;9.70;5.30;;;7.90;99.90;;;;;;4172613;28;20373;-56
2022/05/02 02:11:55;;;;;;;9.93;5.57;;;7.80;99.90;;;;;;4172402;28;20033;-69
2022/05/02 02:13:56;;;;;;;10.33;5.40;;;7.80;99.90;;;;;;4172893;28;20378;-55
2022/05/02 02:15:58;;;;;;;11.83;6.10;;;7.80;99.90;;;;;;4171699;28;20109;-61
2022/05/02 02:17:59;;;;;;;7.97;5.10;;;7.80;99.90;;;;;;4172685;28;20122;-58
2022/05/02 02:20:00;;;;;;;12.30;6.27;;;7.60;99.90;;;;;;4170926;28;20053;-57
2022/05/02 02:22:17;;;;;;;10.77;6.40;;;7.60;99.90;;;;;;4173105;28;20130;-67
2022/05/02 02:24:18;;;;;;;13.73;6.10;;;7.80;99.90;;;;;;4171876;28;20033;-57
2022/05/02 02:26:19;;;;;;;17.30;6.67;;;7.80;99.90;;;;;;4172371;28;20102;-55
2022/05/02 02:28:21;;;;;;;11.03;6.43;;;7.80;99.90;;;;;;4171537;28;20041;-54
2022/05/02 02:30:22;;;;;;;11.77;6.53;;;7.80;99.90;;;;;;4154891;28;20041;-56
2022/05/02 02:32:24;;;;;;;11.00;6.83;;;7.70;99.90;;;;;;4171319;28;20064;-57
2022/05/02 02:34:25;;;;;;;15.03;7.20;;;7.80;99.90;;;;;;4172410;28;20103;-57
2022/05/02 02:36:26;;;;;;;10.50;6.63;;;7.80;99.90;;;;;;4171707;28;20041;-66
2022/05/02 02:38:27;;;;;;;11.50;6.13;;;7.80;99.90;;;;;;4172168;28;20036;-70
2022/05/02 02:40:30;;;;;;;15.20;5.73;;;7.80;99.90;;;;;;4171923;28;21156;-56
2022/05/02 02:42:31;;;;;;;10.93;5.60;;;7.70;99.90;;;;;;4171725;28;20041;-54
2022/05/02 02:44:33;;;;;;;8.33;5.43;;;7.70;99.90;;;;;;4171641;28;20071;-55
2022/05/02 02:46:34;;;;;;;9.67;5.70;;;7.80;99.90;;;;;;4171919;28;20025;-53
2022/05/02 02:48:36;;;;;;;15.10;5.90;;;7.70;99.90;;;;;;4173508;28;20676;-53
2022/05/02 02:50:37;;;;;;;10.30;5.73;;;7.70;99.90;;;;;;4174341;28;20049;-56
2022/05/02 02:52:38;;;;;;;15.63;5.97;;;7.70;99.90;;;;;;4175246;28;20087;-56
2022/05/02 02:54:39;;;;;;;12.10;5.77;;;7.70;99.90;;;;;;4174716;28;20033;-58
2022/05/02 02:56:40;;;;;;;12.40;5.73;;;7.70;99.90;;;;;;4176112;28;20033;-59
2022/05/02 02:58:42;;;;;;;8.53;5.30;;;7.60;99.90;;;;;;4174513;28;20033;-64
2022/05/02 03:00:43;;;;;;;12.33;4.77;;;7.60;99.90;;;;;;4175332;28;20033;-53
2022/05/02 03:02:44;;;;;;;11.33;5.50;;;7.60;99.90;;;;;;4174732;28;20040;-62
2022/05/02 03:07:05;;;;;;;10.10;5.13;;;7.70;99.90;;;;;;4175320;28;20036;-54
2022/05/02 03:09:06;;;;;;;9.00;5.23;;;7.70;99.90;;;;;;4176191;28;20146;-58
2022/05/02 03:11:08;;;;;;;14.80;6.00;;;7.70;99.90;;;;;;4173919;28;20090;-68
2022/05/02 03:13:09;;;;;;;6.90;4.47;;;7.70;99.90;;;;;;4175103;28;20049;-54
2022/05/02 03:15:10;;;;;;;7.00;4.73;;;7.70;99.90;;;;;;4173849;28;20022;-56
2022/05/02 03:17:11;;;;;;;7.70;3.87;;;7.60;99.90;;;;;;4174334;28;20045;-57
2022/05/02 03:19:12;;;;;;;5.07;3.00;;;7.70;99.90;;;;;;4174826;28;20098;-67
2022/05/02 03:21:13;;;;;;;8.67;3.63;;;7.70;99.90;;;;;;4174889;28;20087;-62
2022/05/02 03:23:15;;;;;;;7.90;3.60;;;7.70;99.90;;;;;;4175031;28;20040;-66
2022/05/02 03:25:16;;;;;;;6.20;3.60;;;7.70;99.90;;;;;;4171404;28;20082;-50
2022/05/02 03:27:17;;;;;;;6.87;3.77;;;7.80;99.90;;;;;;4159475;28;20042;-55
2022/05/02 03:29:18;;;;;;;10.23;4.40;;;7.90;99.90;;;;;;4158929;28;20782;-52
2022/05/02 03:31:19;;;;;;;7.03;3.80;;;8.00;99.90;;;;;;4175407;28;20086;-63
2022/05/02 03:33:20;;;;;;;4.97;3.00;;;8.10;99.90;;;;;;4182347;28;21923;-69
2022/05/02 03:35:22;;;;;;;5.90;3.30;;;8.10;99.90;;;;;;4179470;28;20041;-57
2022/05/02 03:37:23;;;;;;;9.10;3.53;;;8.30;99.90;;;;;;4173787;28;20033;-60
2022/05/02 03:39:24;;;;;;;12.40;4.57;;;8.50;99.90;;;;;;4175871;28;20036;-58
2022/05/02 03:41:25;;;;;;;11.80;5.23;;;8.60;99.90;;;;;;4174308;28;20045;-51
2022/05/02 03:43:26;;;;;;;17.60;6.07;;;8.50;99.90;;;;;;4174892;28;20106;-56
2022/05/02 03:45:27;;;;;;;21.97;5.57;;;8.60;99.90;;;;;;4173533;28;20075;-61
2022/05/02 03:47:28;;;;;;;12.80;5.90;;;8.80;99.90;;;;;;4174248;28;20087;-56
2022/05/02 03:49:30;;;;;;;15.63;6.73;;;9.00;99.90;;;;;;4174597;28;20048;-56
2022/05/02 03:51:31;;;;;;;16.33;6.93;;;9.10;99.90;;;;;;4172632;28;20082;-60
2022/05/02 03:53:32;;;;;;;28.43;6.73;;;9.20;99.90;;;;;;4174755;28;20046;-56
2022/05/02 03:55:33;;;;;;;18.77;6.37;;;9.40;99.90;;;;;;4173197;28;20095;-59
2022/05/02 03:57:34;;;;;;;10.37;6.97;;;9.60;99.90;;;;;;4174864;28;20037;-56
2022/05/02 03:59:35;;;;;;;10.93;5.67;;;10.00;99.90;;;;;;4154960;28;20098;-56
2022/05/02 04:01:39;;;;;;;8.53;5.33;;;10.30;99.90;;;;;;4172521;28;20110;-57
2022/05/02 04:03:40;;;;;;;11.40;5.00;;;10.60;99.90;;;;;;4155870;28;20096;-65
2022/05/02 04:05:41;;;;;;;9.67;4.70;;;10.90;99.90;;;;;;4174328;28;20066;-62
2022/05/02 04:07:42;;;;;;;10.10;5.07;;;11.20;99.90;;;;;;4173418;28;20515;-52
2022/05/02 04:09:43;;;;;;;10.77;5.30;;;11.50;99.90;;;;;;4174684;28;20209;-55
2022/05/02 04:11:45;;;;;;;10.60;4.63;;;12.00;99.90;;;;;;4173710;28;20770;-57
2022/05/02 04:13:46;;;;;;;15.93;5.60;;;12.30;99.90;;;;;;4173872;28;20036;-63
2022/05/02 04:15:49;;;;;;;15.00;5.37;;;12.40;99.90;;;;;;4173600;28;20025;-65
2022/05/02 04:17:50;;;;;;;9.43;5.03;;;12.90;99.90;;;;;;4173418;28;20017;-52
2022/05/02 04:19:51;;;;;;;15.43;5.00;;;13.40;99.90;;;;;;4168675;28;20037;-56
2022/05/02 04:21:53;;;;;;;10.93;5.27;;;13.40;99.90;;;;;;4169902;28;20106;-57
2022/05/02 04:23:54;;;;;;;9.37;4.87;;;13.30;99.90;;;;;;4186452;28;20033;-60
2022/05/02 04:25:55;;;;;;;10.60;5.20;;;13.00;99.90;;;;;;4177916;28;20041;-68
2022/05/02 04:27:56;;;;;;;13.00;5.33;;;12.90;99.90;;;;;;4181758;28;20480;-55
2022/05/02 04:29:58;;;;;;;10.00;5.37;;;12.80;99.90;;;;;;4185252;28;20883;-54
2022/05/02 04:31:59;;;;;;;10.23;5.87;;;12.70;99.90;;;;;;4179109;28;20389;-58
2022/05/02 04:34:00;;;;;;;12.20;5.20;;;12.80;99.90;;;;;;4179598;28;20053;-56
2022/05/02 04:36:01;;;;;;;12.53;4.50;;;12.90;99.90;;;;;;4186126;28;20040;-56
2022/05/02 04:38:02;;;;;;;6.87;4.40;;;12.80;99.90;;;;;;4171477;28;20033;-62
2022/05/02 04:40:04;;;;;;;8.43;4.33;;;12.70;99.90;;;;;;4173438;28;20040;-56
2022/05/02 04:42:06;;;;;;;7.63;4.50;;;12.60;99.90;;;;;;4173112;28;20037;-63
2022/05/02 04:44:07;;;;;;;14.43;5.57;;;12.60;99.90;;;;;;4172667;28;20091;-68
2022/05/02 04:46:09;;;;;;;14.00;5.67;;;12.70;99.90;;;;;;4171549;28;20033;-63
2022/05/02 04:48:10;;;;;;;13.40;5.37;;;13.10;99.90;;;;;;4172607;28;20388;-68
2022/05/02 04:50:11;;;;;;;13.83;5.63;;;13.60;99.90;;;;;;4173114;28;20033;-56
2022/05/02 04:52:13;;;;;;;14.43;4.93;;;14.10;99.90;;;;;;4172688;28;20128;-54
2022/05/02 04:54:14;;;;;;;11.50;4.30;;;14.40;99.90;;;;;;4173035;28;20029;-60
2022/05/02 04:56:15;;;;;;;13.97;5.43;;;14.70;99.90;;;;;;4172035;28;20083;-62
2022/05/02 04:58:17;;;;;;;12.40;5.27;;;15.20;99.90;;;;;;4174032;28;20867;-64
2022/05/02 05:00:18;;;;;;;14.83;4.93;;;15.70;99.90;;;;;;4172673;28;20548;-69
2022/05/02 05:02:19;;;;;;;19.70;6.50;;;15.90;99.30;;;;;;4174371;28;20067;-65
2022/05/02 05:04:21;;;;;;;14.37;5.43;;;16.20;98.80;;;;;;4171974;28;20516;-65
2022/05/02 05:06:23;;;;;;;11.90;4.90;;;16.60;97.90;;;;;;4173777;28;20045;-54
2022/05/02 05:08:24;;;;;;;7.83;3.67;;;16.80;97.30;;;;;;4172230;28;20041;-71
2022/05/02 05:10:25;;;;;;;8.37;4.30;;;17.00;96.50;;;;;;4173132;28;20037;-59
2022/05/02 05:12:45;;;;;;;7.43;3.22;;;17.40;95.80;;;;;;4171873;28;20138;-58
2022/05/02 05:18:05;;;;;;;5.85;3.03;;;17.70;92.90;;;;;;4171815;28;20126;-57
2022/05/02 05:20:15;;;;;;;6.80;3.38;;;18.00;92.10;;;;;;4174056;28;20025;-69
2022/05/02 05:22:23;;;;;;;7.32;3.15;;;18.50;92.10;;;;;;4171985;28;20815;-68
2022/05/02 05:24:59;;;;;;;6.13;3.13;;;18.50;91.00;;;;;;4172786;28;20444;-57
2022/05/02 05:27:30;;;;;;;6.18;4.30;;;19.00;90.50;;;;;;4104800;28;20070;-70
2022/05/02 05:29:57;;;;;;;6.20;3.45;;;19.60;85.10;;;;;;4123366;28;20029;-52
2022/05/02 05:32:05;;;;;;;8.45;4.03;;;19.70;85.70;;;;;;4169409;28;20041;-67
2022/05/02 05:34:07;;;;;;;7.43;3.50;;;20.20;83.50;;;;;;4171620;28;20041;-60
2022/05/02 05:36:37;;;;;;;5.13;3.28;;;20.70;83.10;;;;;;4173507;28;20033;-58
2022/05/02 05:38:58;;;;;;;5.80;3.17;;;20.90;78.00;;;;;;4170928;28;20053;-58
2022/05/02 05:41:37;;;;;;;4.93;3.17;;;20.90;76.50;;;;;;4172755;28;20048;-59
2022/05/02 05:43:57;;;;;;;8.98;3.55;;;21.20;74.60;;;;;;4130909;28;20095;-59
2022/05/02 05:46:04;;;;;;;8.52;3.80;;;;;;;;;;4170900;28;20024;-59
2022/05/02 05:48:26;;;;;;;6.20;3.17;;;;;;;;;;4171087;28;20033;-60
2022/05/02 05:50:31;;;;;;;10.65;3.33;;;;;;;;;;4173086;28;20467;-58
2022/05/02 05:52:41;;;;;;;5.18;3.08;;;;;;;;;;4170993;28;20072;-65
2022/05/02 05:54:58;;;;;;;4.80;2.67;;;;;;;;;;4167768;28;20049;-57
2022/05/02 05:56:59;;;;;;;7.60;3.17;;;;;;;;;;4183416;28;20041;-59
2022/05/02 05:59:07;;;;;;;8.30;3.22;;;21.30;76.80;;;;;;4190042;28;20073;-58
2022/05/02 06:01:14;;;;;;;8.43;3.35;;;21.30;72.90;;;;;;4169145;28;20463;-61
2022/05/02 06:03:16;;;;;;;8.38;2.90;;;20.50;72.80;;;;;;4172718;28;20110;-54
2022/05/02 06:05:18;;;;;;;8.63;3.45;;;20.00;74.80;;;;;;4171616;28;20447;-55
2022/05/02 06:07:21;;;;;;;7.53;3.05;;;19.90;75.20;;;;;;4173656;28;20037;-62
2022/05/02 06:09:25;;;;;;;10.98;3.65;;;20.20;75.20;;;;;;4180549;28;20032;-58
2022/05/02 06:11:27;;;;;;;12.30;3.53;;;20.60;74.40;;;;;;4172400;28;20041;-65
2022/05/02 06:13:32;;;;;;;14.65;3.60;;;20.20;74.20;;;;;;4186466;28;20446;-57
2022/05/02 06:20:21;;;;;;;11.70;3.90;;;18.60;77.10;;;;;;4183653;28;20143;-57
2022/05/02 06:22:22;;;;;;;13.40;4.78;;;18.30;77.90;;;;;;4170035;28;20048;-66
2022/05/02 06:24:26;;;;;;;10.35;3.20;;;18.00;78.70;;;;;;4172054;28;20174;-55
2022/05/02 06:26:27;;;;;;;21.67;4.25;;;17.60;79.70;;;;;;4171322;28;20427;-60
2022/05/02 06:28:41;;;;;;;12.32;4.45;;;17.40;80.20;;;;;;4178688;28;20820;-64
2022/05/02 06:30:43;;;;;;;12.52;4.40;;;17.60;80.20;;;;;;4188082;28;20094;-55
2022/05/02 06:32:46;;;;;;;6.00;3.70;;;17.50;80.60;;;;;;4180119;28;20071;-60
2022/05/02 06:34:47;;;;;;;8.30;4.47;;;17.70;80.70;;;;;;4170968;28;20049;-59
2022/05/02 06:37:04;;;;;;;9.48;4.70;;;18.00;80.50;;;;;;4173097;28;20435;-57
2022/05/02 06:39:23;;;;;;;10.95;4.88;;;18.40;79.70;;;;;;4171703;28;20075;-56
2022/05/02 06:41:52;;;;;;;9.57;4.57;;;18.80;79.40;;;;;;4172194;28;20048;-59
2022/05/02 06:44:07;;;;;;;12.55;5.18;;;19.20;79.10;;;;;;4136720;28;20041;-57
2022/05/02 06:46:33;;;;;;;12.20;5.10;;;19.30;77.90;;;;;;4171146;28;20501;-57
2022/05/02 06:48:47;;;;;;;10.43;4.85;;;19.30;77.50;;;;;;4170744;28;20053;-68
2022/05/02 06:51:14;;;;;;;7.60;4.63;;;18.90;78.60;;;;;;4154932;28;20094;-60
2022/05/02 06:53:27;;;;;;;7.65;5.15;;;18.70;79.00;;;;;;4170653;28;20037;-58
2022/05/02 06:55:43;;;;;;;10.68;4.85;;;18.50;79.70;;;;;;4180563;28;20101;-62
2022/05/02 06:57:54;;;;;;;8.32;5.20;;;18.20;80.50;;;;;;4188479;28;20086;-59
2022/05/02 07:00:05;;;;;;;9.10;4.85;;;18.10;81.50;;;;;;4188188;28;20093;-58
2022/05/02 07:02:12;;;;;;;10.52;5.03;;;18.40;81.60;;;;;;4188158;28;20041;-58
2022/05/02 07:04:31;;;;;;;15.07;5.53;;;18.00;81.50;;;;;;4171525;28;20198;-60
2022/05/02 07:07:10;;;;;;;9.63;5.53;;;17.50;82.60;;;;;;4172357;28;20033;-55
2022/05/02 07:09:21;;;;;;;9.70;5.10;;;17.40;83.50;;;;;;4146367;28;20130;-55
2022/05/02 07:11:34;;;;;;;11.90;4.65;;;17.70;83.10;;;;;;4172585;28;20036;-59
2022/05/02 07:13:35;;;;;;;8.35;4.82;;;17.80;82.80;;;;;;4171830;28;20075;-60
2022/05/02 07:15:49;;;;;;;10.30;5.07;;;17.60;83.20;;;;;;4172255;28;20045;-56
2022/05/02 07:18:19;;;;;;;15.45;6.72;;;17.60;83.80;;;;;;4171011;28;20140;-59
2022/05/02 07:20:47;;;;;;;10.38;6.53;;;17.60;84.30;;;;;;4175942;28;20536;-60
2022/05/02 07:23:27;;;;;;;9.88;5.07;;;17.40;84.60;;;;;;4171186;28;20495;-59
2022/05/02 07:25:30;;;;;;;14.32;5.68;;;17.10;86.10;;;;;;4168184;28;20041;-58
2022/05/02 07:27:46;;;;;;;17.23;5.72;;;17.20;86.40;;;;;;4170035;28;20045;-58
2022/05/02 07:29:50;;;;;;;9.90;5.03;;;17.10;86.60;;;;;;4172701;28;20083;-63
2022/05/02 07:31:51;;;;;;;18.25;5.72;;;17.10;86.80;;;;;;4170897;28;20110;-57
2022/05/02 07:33:54;;;;;;;9.88;4.85;;;17.00;87.50;;;;;;4173677;28;20079;-59
2022/05/02 07:35:56;;;;;;;7.50;4.40;;;16.80;88.90;;;;;;4179278;28;20554;-58
2022/05/02 07:37:58;;;;;;;7.00;4.45;;;16.80;89.50;;;;;;4190829;28;20036;-61
2022/05/02 07:40:00;;;;;;;10.55;5.40;;;17.10;89.10;;;;;;4182558;28;20028;-61
2022/05/02 07:42:04;;;;;;;10.73;4.55;;;17.00;89.60;;;;;;4176064;28;20056;-61
2022/05/02 07:44:07;;;;;;;7.78;3.80;;;16.90;89.90;;;;;;4174151;28;20085;-58
2022/05/02 07:46:11;;;;;;;6.65;4.07;;;16.90;89.70;;;;;;4175146;28;20040;-57
2022/05/02 07:48:12;;;;;;;5.13;3.60;;;17.10;89.30;;;;;;4172996;28;20040;-56
2022/05/02 07:50:17;;;;;;;7.18;3.83;;;17.30;88.90;;;;;;4175236;28;20403;-56
2022/05/02 07:52:23;;;;;;;8.50;3.45;;;17.60;88.70;;;;;;4186675;28;20037;-61
2022/05/02 07:54:27;;;;;;;8.43;3.75;;;17.70;87.40;;;;;;4186392;28;20125;-68
2022/05/02 07:56:32;;;;;;;5.10;3.30;;;17.70;87.00;;;;;;4174592;28;20126;-59
2022/05/02 07:58:34;;;;;;;3.83;2.58;;;17.80;86.60;;;;;;4174490;28;20086;-65
2022/05/02 08:00:37;;;;;;;6.60;3.13;;;17.80;86.20;;;;;;4178888;28;20511;-59
2022/05/02 08:02:39;;;;;;;6.75;3.60;;;17.90;86.20;;;;;;4190583;28;20028;-56
2022/05/02 08:04:44;;;;;;;4.25;3.40;;;17.90;86.20;;;;;;4191555;28;20102;-59
2022/05/02 08:06:48;;;;;;;6.63;3.08;;;17.90;85.90;;;;;;4173822;28;20432;-61
2022/05/02 08:09:30;;;;;;;6.65;2.97;;;18.10;85.80;;;;;;4175197;28;20087;-60
2022/05/02 08:12:10;;;;;;;4.95;3.15;;;18.10;85.50;;;;;;4173488;28;20045;-68
2022/05/02 08:14:16;;;;;;;3.97;2.90;;;18.00;85.50;;;;;;4144401;28;20033;-66
2022/05/02 08:16:24;;;;;;;7.53;3.03;;;18.10;85.70;;;;;;4173781;28;20094;-59
2022/05/02 08:19:00;;;;;;;5.30;2.83;;;18.40;85.00;;;;;;4173254;28;20456;-68
2022/05/02 08:21:26;;;;;;;5.38;2.97;;;18.70;84.20;;;;;;4158569;28;20739;-60
2022/05/02 08:29:17;;;;;;;5.47;3.45;;;18.70;83.60;;;;;;4173864;28;19950;-57
2022/05/02 08:31:41;;;;;;;5.60;3.20;;;18.70;83.60;;;;;;4172357;28;20040;-57
2022/05/02 08:33:59;;;;;;;3.78;3.38;;;19.00;83.90;;;;;;4174425;28;20082;-57
2022/05/02 08:36:17;;;;;;;8.98;3.28;;;19.00;82.70;;;;;;4154818;28;20034;-61
2022/05/02 08:38:27;;;;;;;6.65;3.20;;;18.90;83.40;;;;;;4156243;28;20563;-59
2022/05/02 08:40:47;;;;;;;5.03;2.85;;;18.90;84.00;;;;;;4172300;28;20115;-53
2022/05/02 08:43:07;;;;;;;;;;;18.80;84.50;;;;;;4157448;28;20045;-64
2022/05/02 08:45:33;;;;;;;2.50;2.15;;;19.10;85.10;;;;;;4168927;28;19977;-59
2022/05/02 08:48:01;;;;;;;5.15;2.72;;;19.20;83.10;;;;;;4174425;28;20032;-65
2022/05/02 08:50:22;;;;;;;7.30;2.60;;;19.30;82.20;;;;;;4172946;28;20033;-55
2022/05/02 08:52:46;;;;;;;6.40;2.63;;;19.40;81.70;;;;;;4174146;28;20303;-57
2022/05/02 08:54:53;;;;;;;3.78;2.10;;;19.30;81.80;;;;;;4173194;28;20423;-66
2022/05/02 08:56:57;;;;;;;12.25;2.45;;;19.50;82.40;;;;;;4169220;28;20410;-58
2022/05/02 08:59:23;;;;;;;4.65;2.20;;;19.70;81.90;;;;;;4180049;28;20114;-53
2022/05/02 09:02:01;;;;;;;3.95;1.85;;;19.70;80.60;;;;;;4172085;28;20102;-61
2022/05/02 09:04:30;;;;;;;3.63;2.00;;;19.90;80.60;;;;;;4157244;28;20107;-59
2022/05/02 09:07:03;;;;;;;3.60;1.95;;;20.00;78.70;;;;;;4156162;28;20527;-67
2022/05/02 09:09:39;;;;;;;2.63;1.92;;;19.90;78.30;;;;;;4157885;28;20448;-60
2022/05/02 09:12:38;;;;;;;4.47;1.77;;;19.60;76.10;;;;;;4155382;28;20060;-60
2022/05/02 09:15:09;;;;;;;3.00;1.48;;;19.60;76.70;;;;;;4120934;28;20038;-64
2022/05/02 09:17:52;;;;;;;2.60;1.52;;;19.50;75.30;;;;;;4122262;28;20069;-58
2022/05/02 09:19:56;;;;;;;2.95;1.38;;;19.40;75.70;;;;;;4132478;28;20045;-58
2022/05/02 09:22:25;;;;;;;3.72;1.83;;;19.40;75.20;;;;;;4157497;28;20116;-60
2022/05/02 09:24:47;;;;;;;1.60;1.33;;;19.50;73.50;;;;;;4156066;28;20025;-57
2022/05/02 09:27:11;;;;;;;2.65;1.38;;;19.50;74.50;;;;;;4156401;28;20091;-60
2022/05/02 09:29:40;;;;;;;2.53;1.60;;;19.30;71.50;;;;;;4156083;28;20041;-56
2022/05/02 09:32:21;;;;;;;2.35;1.40;;;19.20;74.10;;;;;;4157046;28;20045;-59
2022/05/02 09:34:34;;;;;;;;;;;19.20;73.90;;;;;;4171857;28;20094;-59
2022/05/02 09:37:02;;;;;;;3.83;1.45;;;19.10;71.40;;;;;;4171772;28;19908;-60
2022/05/02 09:39:20;;;;;;;6.65;1.83;;;19.30;73.50;;;;;;4132363;28;20515;-56
2022/05/02 09:41:44;;;;;;;1.50;1.30;;;19.60;72.60;;;;;;4171299;28;20037;-61
2022/05/02 09:49:50;;;;;;;1.58;1.10;;;20.10;69.30;;;;;;4171962;28;20091;-52
2022/05/02 09:52:13;;;;;;;1.27;1.00;;;19.90;65.70;;;;;;4105306;28;20805;-64
2022/05/02 09:57:21;;;;;;;2.17;1.55;;;19.80;70.90;;;;;;4150188;28;20062;-60
2022/05/02 09:59:29;;;;;;;8.77;2.13;;;19.90;70.20;;;;;;4169874;28;20107;-62
2022/05/02 10:01:32;;;;;;;2.92;1.63;;;20.20;71.30;;;;;;4173531;28;20067;-64
2022/05/02 10:03:36;;;;;;;2.83;1.40;;;20.30;70.60;;;;;;4163341;28;20091;-58
2022/05/02 10:05:45;;;;;;;2.13;1.30;;;20.20;68.50;;;;;;4169678;28;20045;-66
2022/05/02 10:08:13;;;;;;;2.38;1.20;;;20.10;67.00;;;;;;4155575;28;20477;-64
2022/05/02 10:10:26;;;;;;;2.85;1.33;;;20.20;67.10;;;;;;4161172;28;20071;-64
2022/05/02 10:12:49;;;;;;;1.85;1.10;;;20.30;66.30;;;;;;4166591;28;20044;-59
2022/05/02 10:15:28;;;;;;;1.10;1.00;;;20.50;64.20;;;;;;4172767;28;20029;-65
2022/05/02 10:18:06;;;;;;;1.52;1.17;;;20.80;63.60;;;;;;4171644;28;20056;-64
2022/05/02 10:20:21;;;;;;;1.42;1.25;;;20.80;64.40;;;;;;4165884;28;20029;-56
2022/05/02 10:22:29;;;;;;;2.17;1.42;;;20.70;66.70;;;;;;4172397;28;20048;-57
2022/05/02 10:24:57;;;;;;;1.33;1.23;;;20.50;66.90;;;;;;4170921;28;20539;-56
2022/05/02 10:27:40;;;;;;;2.28;1.30;;;20.50;66.00;;;;;;4172899;28;20033;-65
2022/05/02 10:30:13;;;;;;;3.53;1.27;;;20.70;66.30;;;;;;4143387;28;20093;-54
2022/05/02 10:32:19;;;;;;;3.25;1.20;;;20.80;65.90;;;;;;4155359;28;20630;-58
2022/05/02 10:34:24;;;;;;;1.80;1.48;;;20.20;65.70;;;;;;4159905;28;20045;-57
2022/05/02 10:36:33;;;;;;;1.63;1.45;;;20.20;66.20;;;;;;4164423;28;20041;-59
2022/05/02 10:38:41;;;;;;;2.50;1.02;;;20.30;66.00;;;;;;4180496;28;20032;-64
2022/05/02 10:40:45;;;;;;;3.08;1.40;;;20.30;66.40;;;;;;4153760;28;20034;-58
2022/05/02 10:42:52;;;;;;;1.45;1.10;;;20.50;66.30;;;;;;4171848;28;20174;-62
2022/05/02 10:45:06;;;;;;;1.73;1.15;;;20.30;65.10;;;;;;4173187;28;20033;-61
2022/05/02 10:47:10;;;;;;;3.20;1.27;;;20.30;65.50;;;;;;4171714;28;20029;-60
2022/05/02 10:49:21;;;;;;;1.42;1.23;;;20.30;65.30;;;;;;4171671;28;20037;-54
2022/05/02 10:51:51;;;;;;;2.50;1.50;;;20.20;64.10;;;;;;4171722;28;20025;-58
2022/05/02 10:54:09;;;;;;;1.40;1.30;;;20.00;64.50;;;;;;4135186;28;20071;-63
2022/05/02 10:56:23;;;;;;;2.13;1.50;;;19.90;64.40;;;;;;4170747;28;20045;-58
2022/05/02 10:58:24;;;;;;;2.10;1.40;;;19.80;65.50;;;;;;4170822;28;20049;-55
2022/05/02 11:00:28;;;;;;;4.13;1.42;;;19.90;66.00;;;;;;4171323;28;20086;-62
2022/05/02 11:03:00;;;;;;;2.45;1.20;;;20.00;66.10;;;;;;4171402;28;20041;-56
2022/05/02 11:05:11;;;;;;;2.63;1.40;;;20.10;66.00;;;;;;4172166;28;20440;-60
2022/05/02 11:07:25;;;;;;;3.70;1.70;;;20.00;65.50;;;;;;4170993;28;20032;-65
2022/05/02 11:09:47;;;;;;;3.67;1.33;;;20.20;65.70;;;;;;4172768;28;20060;-64
2022/05/02 11:11:50;;;;;;;2.45;1.63;;;20.30;65.60;;;;;;4174593;28;20871;-62
2022/05/02 11:14:04;;;;;;;2.08;1.50;;;20.20;65.20;;;;;;4175120;28;20040;-58
2022/05/02 11:16:32;;;;;;;1.77;1.35;;;20.20;64.20;;;;;;4173426;28;20030;-58
2022/05/02 11:21:29;;;;;;;2.05;1.30;;;19.90;65.10;;;;;;4174334;28;20536;-57
2022/05/02 11:23:40;;;;;;;1.92;1.10;;;19.80;64.70;;;;;;4175595;28;20080;-64
2022/05/02 11:26:14;;;;;;;2.90;1.75;;;19.80;65.20;;;;;;4173652;28;20045;-63
2022/05/02 11:28:21;;;;;;;1.45;1.23;;;19.90;64.80;;;;;;4175007;28;20523;-64
2022/05/02 11:30:27;;;;;;;4.30;1.30;;;20.10;65.20;;;;;;4174326;28;20098;-56
2022/05/02 11:32:53;;;;;;;3.10;1.40;;;20.20;65.20;;;;;;4157018;28;20930;-57
2022/05/02 11:35:12;;;;;;;3.58;1.35;;;20.40;65.40;;;;;;4174091;28;20045;-63
2022/05/02 11:37:24;;;;;;;1.80;0.82;;;20.70;64.90;;;;;;4174236;28;20048;-57
2022/05/02 11:40:00;;;;;;;1.52;1.20;;;20.90;64.40;;;;;;4175825;28;20094;-58
2022/05/02 11:42:09;;;;;;;1.73;0.90;;;21.00;64.20;;;;;;4174077;28;20029;-60
2022/05/02 11:44:13;;;;;;;1.38;1.00;;;21.10;63.70;;;;;;4175036;28;20040;-58